Time;durP1;ratioP1;P1;durP2;ratioP2;P2;SDS_P1;SDS_P2;PMS_P1;PMS_P2;Temp;Humidity;BMP_temperature;BMP_pressure;BME280_temperature;BME280_humidity;BME280_pressure;Samples;Min_cycle;Max_cycle;Signal;HPM_P1;HPM_P2
2021/05/14 00:00:53;;;;;;;2.25;1.95;;;;;;;10.85;66.20;99540.66;6228268;23;20008;-78
2021/05/14 00:03:19;;;;;;;2.05;1.95;;;;;;;10.87;65.91;99543.91;6255280;23;20050;-76
2021/05/14 00:05:45;;;;;;;2.20;2.10;;;;;;;10.87;65.77;99538.44;6256042;23;20004;-75
2021/05/14 00:08:10;;;;;;;2.30;2.20;;;;;;;10.88;66.00;99545.56;6227379;23;20023;-74
2021/05/14 00:10:38;;;;;;;1.95;1.85;;;;;;;10.87;66.74;99538.44;6226490;23;20019;-77
2021/05/14 00:13:08;;;;;;;2.50;2.40;;;;;;;10.87;66.37;99538.44;6251182;23;20027;-75
2021/05/14 00:15:59;;;;;;;2.08;1.98;;;;;;;10.88;66.06;99545.56;6253446;23;20031;-75
2021/05/14 00:18:28;;;;;;;2.70;2.60;;;;;;;10.85;66.57;99540.66;6188746;23;20015;-76
2021/05/14 00:20:53;;;;;;;2.53;2.42;;;;;;;10.89;66.84;99552.63;6200839;23;20059;-75
2021/05/14 00:23:23;;;;;;;2.33;2.22;;;;;;;10.93;66.71;99550.94;6227249;23;20008;-78
2021/05/14 00:25:49;;;;;;;2.60;2.50;;;;;;;10.96;66.57;99558.56;6205388;23;20015;-77
2021/05/14 00:28:14;;;;;;;2.83;2.38;;;;;;;10.98;66.95;99555.53;6254830;23;20008;-77
2021/05/14 00:30:40;;;;;;;2.72;2.63;;;;;;;10.95;66.87;99546.03;6197017;23;20008;-76
2021/05/14 00:33:05;;;;;;;1.98;1.88;;;;;;;10.93;66.43;99548.22;6255519;23;20004;-77
2021/05/14 00:35:31;;;;;;;2.28;2.00;;;;;;;10.92;67.01;99552.06;6228524;23;20103;-75
2021/05/14 00:37:56;;;;;;;2.53;2.42;;;;;;;10.82;66.24;99547.50;6223662;23;20012;-78
2021/05/14 00:40:22;;;;;;;2.53;2.42;;;;;;;10.76;66.88;99558.78;6255768;23;20087;-78
2021/05/14 00:42:47;;;;;;;2.30;2.20;;;;;;;10.67;66.98;99555.06;6231152;23;20087;-77
2021/05/14 00:45:15;;;;;;;2.60;2.50;;;;;;;10.56;67.14;99549.69;6255047;23;20016;-77
2021/05/14 00:47:43;;;;;;;2.50;2.40;;;;;;;10.60;67.42;99560.84;6252385;23;20103;-76
2021/05/14 00:50:19;;;;;;;3.22;3.13;;;;;;;10.56;67.52;99559.81;6256195;23;20004;-77
2021/05/14 00:52:47;;;;;;;3.72;3.47;;;;;;;10.46;67.68;99550.56;6229772;23;20007;-76
2021/05/14 00:55:16;;;;;;;3.42;3.22;;;;;;;10.49;67.94;99560.13;6203294;23;20027;-78
2021/05/14 00:57:42;;;;;;;2.58;2.47;;;;;;;10.36;68.39;99552.59;6229193;23;20007;-76
2021/05/14 01:00:14;;;;;;;3.00;2.90;;;;;;;10.39;68.43;99554.75;6228846;23;20004;-76
2021/05/14 01:02:52;;;;;;;1.48;1.48;;;;;;;10.32;68.27;99541.38;6228892;23;20008;-75
2021/05/14 01:05:25;;;;;;;4.07;1.80;;;;;;;10.47;68.25;99557.69;6256255;23;20091;-78
2021/05/14 01:07:52;;;;;;;2.58;2.47;;;;;;;10.58;68.13;99580.28;6230037;23;19996;-77
2021/05/14 01:10:21;;;;;;;2.00;1.90;;;;;;;10.45;67.90;99559.91;6256332;23;20061;-76
2021/05/14 01:13:39;;;;;;;;;;;;;;;;;;;;;
2021/05/14 01:15:53;;;;;;;2.15;2.03;;;;;;;10.33;67.38;99564.88;6241492;23;20019;-77
2021/05/14 01:18:27;;;;;;;2.50;2.40;;;;;;;10.09;67.50;99557.41;6204502;23;20012;-76
2021/05/14 01:20:54;;;;;;;2.45;2.35;;;;;;;10.02;67.98;99561.56;6230168;23;20062;-79
2021/05/14 01:23:20;;;;;;;2.30;2.20;;;;;;;9.89;67.81;99552.88;6258426;23;20032;-78
2021/05/14 01:25:48;;;;;;;3.47;3.38;;;;;;;9.88;68.55;99564.91;6206267;23;20011;-79
2021/05/14 01:28:17;;;;;;;2.95;2.85;;;;;;;9.71;68.63;99554.38;6233423;23;20079;-79
2021/05/14 01:30:45;;;;;;;3.40;3.20;;;;;;;9.73;68.95;99570.47;6257682;23;20450;-79
2021/05/14 01:33:10;;;;;;;2.90;2.70;;;;;;;9.52;68.99;99548.72;6233328;23;20001;-79
2021/05/14 01:35:41;;;;;;;2.40;2.30;;;;;;;9.62;68.44;99564.22;6205156;23;20016;-80
2021/05/14 01:38:26;;;;;;;;;;;;;;;;;;;;;
2021/05/14 01:40:52;;;;;;;3.55;3.35;;;;;;;9.50;68.74;99556.38;6254667;23;20019;-77
2021/05/14 01:43:21;;;;;;;4.13;3.92;;;;;;;9.42;69.88;99549.59;6230369;23;20007;-78
2021/05/14 01:46:05;;;;;;;4.25;4.05;;;;;;;9.33;69.72;99528.59;6229507;23;20011;-77
2021/05/14 01:48:31;;;;;;;6.55;4.43;;;;;;;9.42;69.74;99549.59;6249300;23;20536;-77
2021/05/14 01:51:04;;;;;;;3.85;3.55;;;;;;;9.41;69.82;99541.69;6252055;23;20075;-76
2021/05/14 01:53:30;;;;;;;6.93;3.90;;;;;;;9.50;70.16;99559.09;6221771;23;20026;-77
2021/05/14 01:56:00;;;;;;;3.38;3.17;;;;;;;9.58;69.40;99558.53;6225586;23;20389;-76
2021/05/14 01:58:28;;;;;;;4.25;3.97;;;;;;;9.51;70.10;99551.75;6235241;23;20015;-77
2021/05/14 02:00:56;;;;;;;4.60;4.40;;;;;;;9.47;70.53;99546.00;6210924;23;20014;-76
2021/05/14 02:03:29;;;;;;;4.10;3.85;;;;;;;9.50;70.17;99545.44;6228939;23;20653;-77
2021/05/14 02:06:02;;;;;;;6.50;6.10;;;;;;;9.56;70.51;99549.81;6200610;23;20012;-78
2021/05/14 02:08:38;;;;;;;5.32;4.93;;;;;;;9.51;70.08;99547.09;6225856;23;20043;-78
2021/05/14 02:11:08;;;;;;;5.07;4.88;;;;;;;9.55;70.75;99544.59;6226084;22;20083;-78
2021/05/14 02:13:40;;;;;;;5.32;4.93;;;;;;;9.66;70.52;99559.03;6226091;23;20028;-77
2021/05/14 02:16:22;;;;;;;;;;;;;;;;;;;;;
2021/05/14 02:19:01;;;;;;;5.20;4.90;;;;;;;9.71;70.37;99570.75;6251024;23;20031;-76
2021/05/14 02:21:26;;;;;;;4.20;3.90;;;;;;;9.75;70.34;99579.19;6245404;23;20008;-76
2021/05/14 02:23:52;;;;;;;5.22;4.85;;;;;;;9.68;70.43;99563.13;6252128;23;20040;-77
2021/05/14 02:26:17;;;;;;;4.35;4.15;;;;;;;9.63;70.33;99557.66;6223547;23;20069;-77
2021/05/14 02:28:53;;;;;;;;;;;;;;;;;;;;;
2021/05/14 02:31:18;;;;;;;6.05;4.65;;;;;;;9.67;71.00;99557.94;6247477;23;20031;-78
2021/05/14 02:33:55;;;;;;;;;;;;;;;;;;;;;
2021/05/14 02:36:41;;;;;;;3.40;3.20;;;;;;;9.76;70.70;99558.97;6248582;23;20054;-76
2021/05/14 02:39:08;;;;;;;3.55;3.30;;;;;;;9.82;70.99;99571.50;6223237;23;20070;-77
2021/05/14 02:41:37;;;;;;;6.25;3.75;;;;;;;9.94;70.98;99580.19;6248693;23;20071;-77
2021/05/14 02:44:05;;;;;;;3.08;2.97;;;;;;;9.84;70.25;99555.66;6221839;23;20020;-77
2021/05/14 02:46:32;;;;;;;3.35;2.70;;;;;;;9.85;70.48;99553.75;6247816;23;20027;-76
2021/05/14 02:49:10;;;;;;;;;;;;;;;;;;;;;
2021/05/14 02:51:36;;;;;;;2.58;2.47;;;;;;;10.02;70.84;99572.50;6250977;23;20083;-77
2021/05/14 02:54:03;;;;;;;2.17;2.08;;;;;;;10.11;71.12;99587.16;6241345;23;20382;-77
2021/05/14 02:56:30;;;;;;;3.85;2.70;;;;;;;10.12;70.40;99577.88;6221734;23;20431;-77
2021/05/14 02:59:03;;;;;;;2.38;2.28;;;;;;;10.17;70.39;99577.84;6222148;23;20000;-77
2021/05/14 03:01:31;;;;;;;3.30;3.10;;;;;;;10.12;70.79;99566.94;6221951;23;20056;-76
2021/05/14 03:03:57;;;;;;;2.85;2.75;;;;;;;10.16;70.89;99573.47;6222876;23;20065;-77
2021/05/14 03:06:25;;;;;;;4.07;3.88;;;;;;;10.28;70.72;99582.13;6250327;23;20004;-77
2021/05/14 03:08:50;;;;;;;3.80;3.55;;;;;;;10.29;71.16;99578.31;6226567;23;20015;-76
2021/05/14 03:11:16;;;;;;;3.75;3.55;;;;;;;10.39;70.64;99587.53;6235375;23;20007;-77
2021/05/14 03:13:41;;;;;;;3.58;3.38;;;;;;;10.44;70.31;99592.97;6210812;23;20004;-75
2021/05/14 03:16:08;;;;;;;5.57;3.20;;;;;;;10.38;70.40;99577.72;6236793;23;20057;-76
2021/05/14 03:18:36;;;;;;;5.20;3.28;;;;;;;10.51;71.04;99590.72;6227490;23;20015;-77
2021/05/14 03:21:09;;;;;;;2.55;2.35;;;;;;;10.44;71.29;99573.81;6228669;23;20018;-75
2021/05/14 03:23:34;;;;;;;2.97;2.78;;;;;;;10.56;70.35;99587.94;6252001;23;20434;-74
2021/05/14 03:26:00;;;;;;;4.00;3.25;;;;;;;10.62;70.29;99586.00;6253810;23;20004;-75
2021/05/14 03:28:25;;;;;;;3.35;3.15;;;;;;;10.62;70.55;99578.59;6221323;23;20446;-76
2021/05/14 03:30:52;;;;;;;3.03;2.92;;;;;;;10.72;70.75;99590.53;6253691;23;20012;-76
2021/05/14 03:33:20;;;;;;;3.00;2.90;;;;;;;10.74;70.62;99597.34;6228111;23;20008;-75
2021/05/14 03:35:51;;;;;;;2.80;2.70;;;;;;;10.76;70.05;99597.91;6226903;23;20055;-76
2021/05/14 03:38:17;;;;;;;3.55;3.33;;;;;;;10.76;70.13;99591.59;6255326;23;20004;-77
2021/05/14 03:40:44;;;;;;;3.75;2.90;;;;;;;10.75;70.32;99584.53;6254353;23;20323;-76
2021/05/14 03:43:09;;;;;;;2.60;2.40;;;;;;;10.79;69.90;99596.50;6251819;23;20031;-75
2021/05/14 03:45:35;;;;;;;2.60;2.50;;;;;;;10.81;69.94;99588.84;6200848;23;20095;-75
2021/05/14 03:48:01;;;;;;;2.67;2.55;;;;;;;10.84;70.18;99591.00;6225651;23;20018;-74
2021/05/14 03:50:31;;;;;;;2.10;2.00;;;;;;;10.83;70.13;99587.44;6221466;23;20008;-76
2021/05/14 03:52:58;;;;;;;2.78;2.58;;;;;;;10.87;70.25;99582.19;6221059;23;20010;-75
2021/05/14 03:55:27;;;;;;;2.63;2.42;;;;;;;10.90;70.34;99587.09;6252635;23;20031;-77
2021/05/14 03:57:56;;;;;;;1.73;1.63;;;;;;;10.87;70.08;99587.66;6248104;23;20031;-78
2021/05/14 04:00:24;;;;;;;1.58;1.48;;;;;;;10.86;69.83;99577.81;6226167;23;20008;-75
2021/05/14 04:02:51;;;;;;;1.23;1.13;;;;;;;10.89;70.07;99585.44;6224258;23;20016;-75
2021/05/14 04:05:17;;;;;;;1.13;1.08;;;;;;;10.93;69.77;99591.97;6228204;23;20015;-77
2021/05/14 04:07:47;;;;;;;1.88;1.67;;;;;;;10.95;69.68;99587.06;6229716;23;20083;-77
2021/05/14 04:10:46;;;;;;;0.90;0.90;;;;;;;10.87;70.08;99571.25;6229443;23;20028;-77
2021/05/14 04:16:15;;;;;;;1.05;1.05;;;;;;;11.02;69.52;99607.78;6251501;23;20026;-79
2021/05/14 04:18:51;;;;;;;;;;;;;;;;;;;;;
2021/05/14 04:21:17;;;;;;;0.88;0.88;;;;;;;10.91;69.06;99588.72;6251384;23;20042;-78
2021/05/14 04:23:52;;;;;;;0.40;0.40;;;;;;;11.00;69.40;99597.13;6253810;23;20004;-77
2021/05/14 04:26:37;;;;;;;0.80;0.80;;;;;;;11.11;69.24;99615.06;6197729;23;20012;-78
2021/05/14 04:29:03;;;;;;;0.90;0.90;;;;;;;11.10;68.94;99607.16;6249927;23;20015;-78
2021/05/14 04:31:29;;;;;;;0.90;0.90;;;;;;;11.21;68.65;99616.88;6254535;23;20000;-78
2021/05/14 04:33:57;;;;;;;0.50;0.50;;;;;;;11.16;68.76;99609.53;6226708;23;20012;-78
2021/05/14 04:36:24;;;;;;;0.63;0.50;;;;;;;11.24;68.48;99607.28;6247489;23;20011;-77
2021/05/14 04:38:53;;;;;;;0.50;0.50;;;;;;;11.40;68.90;99624.34;6201788;23;20008;-78
2021/05/14 04:41:18;;;;;;;0.70;0.70;;;;;;;11.34;68.38;99607.97;6201846;23;20011;-78
2021/05/14 04:43:44;;;;;;;1.42;0.40;;;;;;;11.45;68.08;99616.88;6224922;23;20080;-78
2021/05/14 04:46:10;;;;;;;0.50;0.50;;;;;;;11.47;68.43;99608.38;6229187;23;20008;-79
2021/05/14 04:48:35;;;;;;;0.63;0.60;;;;;;;11.59;68.00;99630.69;6228133;23;20015;-79
2021/05/14 04:51:01;;;;;;;0.63;0.63;;;;;;;11.66;68.64;99624.84;6204113;23;20012;-78
2021/05/14 04:53:31;;;;;;;0.30;0.30;;;;;;;11.67;68.32;99621.81;6227425;23;20000;-78
2021/05/14 04:55:57;;;;;;;0.70;0.70;;;;;;;11.78;68.06;99627.97;6229410;23;20010;-78
2021/05/14 04:58:25;;;;;;;0.57;0.57;;;;;;;11.78;67.70;99627.16;6252302;23;20083;-77
2021/05/14 05:00:50;;;;;;;1.00;0.75;;;;;;;11.85;67.23;99649.53;6222973;23;20004;-76
2021/05/14 05:03:16;;;;;;;0.50;0.50;;;;;;;11.82;67.21;99639.19;6253645;23;20008;-78
2021/05/14 05:05:41;;;;;;;1.15;0.43;;;;;;;11.92;67.24;99652.75;6227566;23;20004;-78
2021/05/14 05:08:07;;;;;;;0.47;0.40;;;;;;;11.89;67.37;99650.59;6229263;23;20027;-77
2021/05/14 05:10:32;;;;;;;0.32;0.30;;;;;;;11.82;67.80;99650.13;6230292;23;20004;-78
2021/05/14 05:12:58;;;;;;;0.63;0.40;;;;;;;11.84;67.15;99669.81;6202994;23;20059;-76
2021/05/14 05:15:24;;;;;;;0.30;0.30;;;;;;;11.78;67.48;99644.41;6233028;23;20000;-77
2021/05/14 05:17:49;;;;;;;1.38;0.50;;;;;;;11.88;67.19;99681.81;6202652;23;20004;-75
2021/05/14 05:20:15;;;;;;;0.50;0.50;;;;;;;11.88;66.98;99676.34;6251489;23;20004;-75
2021/05/14 05:22:40;;;;;;;0.60;0.60;;;;;;;11.80;67.10;99666.06;6253919;23;20086;-74
2021/05/14 05:25:18;;;;;;;0.50;0.50;;;;;;;11.82;66.94;99677.53;6243072;23;20009;-76
2021/05/14 05:27:43;;;;;;;0.38;0.38;;;;;;;11.81;67.08;99676.72;6226520;23;19996;-77
2021/05/14 05:30:13;;;;;;;0.50;0.50;;;;;;;11.80;67.42;99686.03;6202186;23;20031;-76
2021/05/14 05:32:38;;;;;;;0.88;0.43;;;;;;;11.79;66.48;99689.88;6226287;23;19996;-75
2021/05/14 05:35:05;;;;;;;0.65;0.65;;;;;;;11.80;67.08;99690.72;6226050;23;20445;-75
2021/05/14 05:37:30;;;;;;;0.70;0.70;;;;;;;11.86;66.88;99701.31;6224431;23;20070;-75
2021/05/14 05:39:56;;;;;;;1.35;1.25;;;;;;;11.93;66.79;99717.44;6222630;23;20433;-75
2021/05/14 05:42:21;;;;;;;1.40;1.30;;;;;;;11.95;66.95;99706.97;6251289;23;20000;-76
2021/05/14 05:44:47;;;;;;;3.15;2.15;;;;;;;12.00;66.59;99706.94;6250033;22;20028;-75
2021/05/14 05:47:12;;;;;;;2.40;2.20;;;;;;;12.04;66.03;99718.09;6225663;23;20074;-75
2021/05/14 05:49:37;;;;;;;1.48;1.48;;;;;;;12.03;66.26;99717.31;6249861;23;20008;-72
2021/05/14 05:52:03;;;;;;;1.98;1.88;;;;;;;12.14;66.51;99717.16;6250973;23;20004;-77
2021/05/14 05:54:29;;;;;;;2.08;1.98;;;;;;;12.18;66.30;99715.47;6223371;23;20419;-73
2021/05/14 05:56:57;;;;;;;2.00;1.98;;;;;;;12.23;65.58;99718.13;6224373;23;20293;-74
2021/05/14 05:59:23;;;;;;;3.20;2.28;;;;;;;12.25;65.87;99717.84;6249697;23;20008;-72
2021/05/14 06:01:49;;;;;;;2.45;2.35;;;;;;;12.28;65.31;99725.47;6244751;23;20008;-75
2021/05/14 06:04:14;;;;;;;3.10;2.90;;;;;;;12.33;65.37;99731.72;6251802;23;20004;-75
2021/05/14 06:06:40;;;;;;;4.15;2.78;;;;;;;12.37;65.45;99740.97;6222255;23;20058;-75
2021/05/14 06:09:05;;;;;;;2.38;2.28;;;;;;;12.42;65.17;99744.78;6198316;23;20011;-74
2021/05/14 06:11:31;;;;;;;2.58;2.38;;;;;;;12.44;64.91;99750.75;6249292;23;20038;-77
2021/05/14 06:13:56;;;;;;;2.50;2.40;;;;;;;12.42;64.69;99758.47;6223789;23;20087;-76
2021/05/14 06:16:22;;;;;;;2.60;2.40;;;;;;;12.40;65.06;99761.53;6223161;23;20050;-76
2021/05/14 06:18:54;;;;;;;2.95;2.75;;;;;;;12.42;65.45;99762.03;6200595;23;20061;-79
2021/05/14 06:21:20;;;;;;;2.97;2.75;;;;;;;12.44;65.36;99765.31;6223819;23;20023;-76
2021/05/14 06:23:45;;;;;;;2.40;2.30;;;;;;;12.45;64.97;99766.91;6223437;23;20066;-76
2021/05/14 06:26:15;;;;;;;2.08;1.98;;;;;;;12.44;65.15;99764.47;6223964;23;20008;-78
2021/05/14 06:28:41;;;;;;;2.05;1.88;;;;;;;12.53;65.11;99779.19;6252574;23;20007;-76
2021/05/14 06:31:06;;;;;;;2.45;2.35;;;;;;;12.56;64.84;99778.59;6212660;23;20020;-72
2021/05/14 06:33:31;;;;;;;2.58;2.38;;;;;;;12.58;64.62;99784.59;6218588;23;21073;-71
2021/05/14 06:36:00;;;;;;;1.58;1.48;;;;;;;12.65;64.77;99776.81;6214780;23;20384;-73
2021/05/14 06:38:26;;;;;;;2.10;1.85;;;;;;;12.71;64.16;99778.34;6244844;23;20012;-75
2021/05/14 06:40:52;;;;;;;1.95;1.85;;;;;;;12.82;63.69;99791.94;6218647;23;20016;-75
2021/05/14 06:43:19;;;;;;;2.15;1.80;;;;;;;12.81;63.57;99790.31;6219440;22;20012;-74
2021/05/14 06:45:44;;;;;;;1.90;1.80;;;;;;;12.84;62.73;99800.69;6221447;23;20320;-75
2021/05/14 06:48:13;;;;;;;1.65;1.55;;;;;;;12.85;63.72;99803.16;6192686;23;20035;-73
2021/05/14 06:50:42;;;;;;;2.42;1.10;;;;;;;12.95;63.67;99807.66;6249786;23;20004;-75
2021/05/14 06:53:08;;;;;;;1.42;1.33;;;;;;;13.00;63.88;99813.06;6220081;23;20316;-75
2021/05/14 06:55:37;;;;;;;2.33;1.75;;;;;;;13.09;63.44;99814.03;6223233;23;20075;-75
2021/05/14 06:58:04;;;;;;;1.65;1.58;;;;;;;13.17;63.00;99817.22;6219563;23;20019;-74
2021/05/14 07:00:33;;;;;;;1.55;1.45;;;;;;;13.26;63.13;99812.69;6222934;23;20419;-75
2021/05/14 07:03:04;;;;;;;1.05;1.05;;;;;;;13.38;62.82;99821.31;6245952;23;20000;-77
2021/05/14 07:05:29;;;;;;;1.20;1.20;;;;;;;13.48;62.93;99819.50;6223903;23;20009;-78
2021/05/14 07:07:55;;;;;;;0.80;0.80;;;;;;;13.53;62.96;99822.16;6174829;23;20022;-75
2021/05/14 07:10:22;;;;;;;1.27;1.17;;;;;;;13.61;62.28;99818.75;6250579;23;20415;-77
2021/05/14 07:12:47;;;;;;;1.45;1.35;;;;;;;13.59;62.85;99801.72;6256078;23;20004;-75
2021/05/14 07:15:13;;;;;;;1.38;1.27;;;;;;;13.57;62.43;99807.53;6228316;23;20015;-75
2021/05/14 07:18:00;;;;;;;2.75;1.27;;;;;;;13.66;62.74;99807.66;6229260;23;20012;-76
2021/05/14 07:20:27;;;;;;;1.33;1.33;;;;;;;13.59;62.65;99815.47;6201799;23;20035;-74
2021/05/14 07:22:53;;;;;;;0.80;0.80;;;;;;;13.62;62.58;99823.09;6248242;23;20051;-76
2021/05/14 07:25:19;;;;;;;1.65;1.55;;;;;;;13.53;63.06;99811.19;6250910;23;20035;-77
2021/05/14 07:27:44;;;;;;;1.55;1.00;;;;;;;13.56;62.75;99818.81;6195164;23;20008;-74
2021/05/14 07:30:12;;;;;;;1.17;1.08;;;;;;;13.56;63.24;99818.81;6249599;23;20134;-75
2021/05/14 07:32:39;;;;;;;4.63;1.05;;;;;;;13.59;62.80;99824.53;6223634;23;20004;-74
2021/05/14 07:35:09;;;;;;;0.80;0.80;;;;;;;13.60;62.98;99817.91;6250407;23;19996;-76
2021/05/14 07:37:34;;;;;;;0.75;0.75;;;;;;;13.68;63.15;99826.56;6221615;23;20007;-75
2021/05/14 07:40:00;;;;;;;1.50;1.17;;;;;;;13.69;62.90;99823.53;6250394;23;20369;-78
2021/05/14 07:42:28;;;;;;;0.88;0.88;;;;;;;13.75;62.86;99821.50;6200441;23;20009;-75
2021/05/14 07:44:53;;;;;;;0.70;0.60;;;;;;;13.95;62.77;99818.38;6249172;22;20424;-77
2021/05/14 07:47:26;;;;;;;1.00;0.43;;;;;;;14.29;62.87;99832.88;6219051;23;20015;-76
2021/05/14 07:49:53;;;;;;;0.70;0.70;;;;;;;14.58;62.11;99835.31;6226126;23;20004;-78
2021/05/14 07:52:24;;;;;;;0.50;0.50;;;;;;;14.82;61.42;99831.53;6256557;23;20023;-78
2021/05/14 07:54:50;;;;;;;0.75;0.52;;;;;;;15.02;61.01;99833.00;6228534;23;20015;-76
2021/05/14 07:57:17;;;;;;;0.40;0.40;;;;;;;15.05;60.43;99826.88;6258132;23;20032;-78
2021/05/14 07:59:43;;;;;;;0.30;0.30;;;;;;;15.06;59.96;99833.22;6206807;23;20004;-78
2021/05/14 08:02:09;;;;;;;0.60;0.60;;;;;;;14.95;59.56;99838.13;6226648;23;20004;-79
2021/05/14 08:04:34;;;;;;;0.63;0.50;;;;;;;14.68;59.42;99831.56;6202341;23;20070;-79
2021/05/14 08:07:02;;;;;;;0.75;0.75;;;;;;;14.63;58.84;99848.16;6222664;23;20004;-75
2021/05/14 08:09:41;;;;;;;0.38;0.38;;;;;;;14.51;59.77;99839.59;6223356;23;20032;-77
2021/05/14 08:12:20;;;;;;;;;;;;;;;;;;;;;
2021/05/14 08:15:02;;;;;;;;;;;;;;;;;;;;;
2021/05/14 08:18:02;;;;;;;1.48;0.60;;;;;;;14.71;58.57;99850.22;6265817;23;20000;-79
2021/05/14 08:20:28;;;;;;;0.57;0.40;;;;;;;14.58;58.89;99851.00;6216081;23;20004;-80
2021/05/14 08:23:11;;;;;;;0.32;0.32;;;;;;;14.40;59.23;99822.50;6234960;23;20014;-78
2021/05/14 08:25:47;;;;;;;0.30;0.30;;;;;;;14.64;59.68;99850.59;6212736;23;20008;-78
2021/05/14 08:28:16;;;;;;;0.65;0.30;;;;;;;14.60;59.46;99830.31;6239828;23;20063;-79
2021/05/14 08:30:51;;;;;;;2.17;0.32;;;;;;;14.89;59.85;99844.88;6233817;23;20004;-78
2021/05/14 08:33:17;;;;;;;0.60;0.60;;;;;;;14.97;58.89;99838.66;6228814;23;20007;-78
2021/05/14 08:35:53;;;;;;;;;;;;;;;;;;;;;
2021/05/14 08:38:29;;;;;;;0.38;0.38;;;;;;;15.22;58.61;99828.19;6256512;23;20027;-79
2021/05/14 08:40:54;;;;;;;1.52;0.90;;;;;;;15.32;57.10;99836.19;6251252;23;20007;-73
2021/05/14 08:43:23;;;;;;;0.43;0.43;;;;;;;15.38;57.44;99840.44;6249262;23;20004;-73
2021/05/14 08:46:01;;;;;;;;;;;;;;;;;;;;;
2021/05/14 08:48:51;;;;;;;0.30;0.30;;;;;;;15.48;57.52;99844.91;6225285;23;20075;-73
2021/05/14 08:51:23;;;;;;;0.95;0.70;;;;;;;15.60;57.01;99863.63;6247674;23;20008;-74
2021/05/14 08:53:59;;;;;;;;;;;;;;;;;;;;;
2021/05/14 08:56:48;;;;;;;0.40;0.40;;;;;;;15.63;56.53;99851.97;6244909;23;20091;-72
2021/05/14 08:59:15;;;;;;;0.20;0.20;;;;;;;15.62;56.57;99840.13;6247169;23;20004;-74
2021/05/14 09:01:46;;;;;;;0.40;0.40;;;;;;;15.75;55.84;99849.44;6244550;23;20000;-73
2021/05/14 09:04:21;;;;;;;0.20;0.20;;;;;;;15.87;55.76;99863.50;6249762;23;20004;-70
2021/05/14 09:06:47;;;;;;;;;;;;;;;16.07;55.13;99855.81;6219416;23;20023;-74
2021/05/14 09:09:13;;;;;;;;;;;;;;;16.18;55.31;99857.19;6221507;23;19907;-73
2021/05/14 09:11:47;;;;;;;0.60;0.40;;;;;;;16.16;54.95;99848.38;6246366;23;20423;-74
2021/05/14 09:14:34;;;;;;;0.47;0.23;;;;;;;16.38;55.19;99850.28;6220584;23;20019;-73
2021/05/14 09:17:11;;;;;;;0.20;0.10;;;;;;;16.49;54.78;99848.03;6246600;23;19996;-72
2021/05/14 09:19:57;;;;;;;0.20;0.13;;;;;;;16.81;54.13;99851.53;6245686;23;20008;-72
2021/05/14 09:22:24;;;;;;;0.20;0.20;;;;;;;16.92;53.33;99852.91;6248677;23;20012;-73
2021/05/14 09:24:58;;;;;;;0.55;0.20;;;;;;;16.91;52.94;99840.22;6248896;23;20026;-74
2021/05/14 09:27:38;;;;;;;0.20;0.20;;;;;;;16.93;52.16;99854.50;6247229;23;20015;-73
2021/05/14 09:30:08;;;;;;;0.52;0.30;;;;;;;16.86;50.87;99858.84;6223020;23;20075;-74
2021/05/14 09:32:41;;;;;;;0.30;0.20;;;;;;;16.74;50.96;99856.72;6241116;23;20331;-74
2021/05/14 09:35:08;;;;;;;0.88;0.50;;;;;;;16.69;50.25;99865.13;6219526;23;20015;-74
2021/05/14 09:37:53;;;;;;;0.30;0.25;;;;;;;16.65;51.13;99866.94;6249782;23;20079;-73
2021/05/14 09:40:21;;;;;;;1.30;0.40;;;;;;;16.55;51.00;99849.50;6251578;23;20031;-77
2021/05/14 09:43:05;;;;;;;0.10;0.10;;;;;;;16.61;51.75;99846.63;6216899;23;20327;-75
2021/05/14 09:45:31;;;;;;;0.30;0.30;;;;;;;16.84;51.95;99861.94;6249454;23;20023;-74
2021/05/14 09:48:32;;;;;;;;;;;;;;;;;;;;;
2021/05/14 09:51:03;;;;;;;0.45;0.30;;;;;;;16.85;50.90;99847.00;6241478;23;20086;-72
2021/05/14 09:53:34;;;;;;;0.20;0.20;;;;;;;16.80;51.15;99844.38;6215004;23;20046;-74
2021/05/14 09:56:13;;;;;;;;;;;;;;;;;;;;;
2021/05/14 09:59:02;;;;;;;0.40;0.30;;;;;;;16.91;50.54;99856.78;6238161;23;20072;-71
2021/05/14 10:01:33;;;;;;;0.43;0.43;;;;;;;17.00;50.28;99864.28;6215342;23;20012;-72
2021/05/14 10:04:18;;;;;;;0.30;0.30;;;;;;;17.10;50.50;99870.28;6242459;23;20678;-75
2021/05/14 10:06:43;;;;;;;0.35;0.17;;;;;;;17.16;50.54;99870.94;6216440;23;20011;-74
2021/05/14 10:09:10;;;;;;;0.50;0.40;;;;;;;17.27;49.88;99880.56;6213751;23;20374;-71
2021/05/14 10:11:36;;;;;;;0.40;0.40;;;;;;;17.22;49.66;99872.41;6243224;23;20012;-71
2021/05/14 10:14:04;;;;;;;0.77;0.30;;;;;;;17.25;49.56;99866.22;6213873;23;20091;-74
2021/05/14 10:16:54;;;;;;;0.63;0.43;;;;;;;17.33;49.58;99872.09;6216693;23;20008;-75
2021/05/14 10:19:31;;;;;;;;;;;;;;;;;;;;;
2021/05/14 10:21:59;;;;;;;0.20;0.13;;;;;;;17.54;49.56;99878.59;6246295;23;20103;-75
2021/05/14 10:24:52;;;;;;;0.35;0.20;;;;;;;17.73;49.51;99877.44;6216013;23;20011;-75
2021/05/14 10:27:46;;;;;;;0.52;0.30;;;;;;;17.82;49.21;99872.69;6217506;23;20012;-71
2021/05/14 10:30:16;;;;;;;0.00;0.00;;;;;;;17.79;48.84;99867.81;6191266;23;20039;-76
2021/05/14 10:32:47;;;;;;;0.22;0.20;;;;;;;17.93;48.66;99864.88;6215077;23;20031;-76
2021/05/14 10:35:26;;;;;;;;;;;;;;;;;;;;;
2021/05/14 10:38:34;;;;;;;0.93;0.40;;;;;;;18.35;48.57;99872.56;6248967;23;20430;-76
2021/05/14 10:41:23;;;;;;;1.13;0.30;;;;;;;18.73;48.09;99866.19;6239377;23;20007;-74
2021/05/14 10:44:04;;;;;;;0.25;0.10;;;;;;;19.01;47.66;99856.28;6241825;23;20847;-72
2021/05/14 10:46:31;;;;;;;0.40;0.30;;;;;;;19.39;46.75;99876.72;6243036;23;20004;-74
2021/05/14 10:49:11;;;;;;;0.43;0.28;;;;;;;19.81;45.64;99881.41;6243315;23;20015;-75
2021/05/14 10:51:45;;;;;;;0.70;0.20;;;;;;;20.05;45.07;99869.56;6248121;23;20316;-75
2021/05/14 10:54:40;;;;;;;0.32;0.13;;;;;;;20.33;45.02;99877.25;6220739;23;20103;-73
2021/05/14 10:57:13;;;;;;;0.10;0.10;;;;;;;20.48;44.31;99875.75;6227076;23;20012;-74
2021/05/14 10:59:39;;;;;;;0.10;0.10;;;;;;;20.62;43.33;99878.16;6220937;23;20004;-73
2021/05/14 11:02:30;;;;;;;0.20;0.17;;;;;;;20.97;43.38;99877.72;6246224;23;20004;-73
2021/05/14 11:04:57;;;;;;;0.20;0.13;;;;;;;21.34;43.20;99878.44;6216566;23;20084;-72
2021/05/14 11:07:41;;;;;;;1.25;0.10;;;;;;;21.94;42.05;99883.34;6241816;23;20012;-72
2021/05/14 11:10:12;;;;;;;0.10;0.10;;;;;;;22.44;42.09;99887.47;6219406;23;20012;-73
2021/05/14 11:12:38;;;;;;;0.20;0.10;;;;;;;23.12;41.19;99874.34;6241362;23;20423;-74
2021/05/14 11:15:31;;;;;;;0.10;0.10;;;;;;;24.69;41.32;99885.31;6217123;23;20012;-74
2021/05/14 11:18:15;;;;;;;0.20;0.20;;;;;;;26.55;40.51;99890.78;6242885;23;20027;-73
2021/05/14 11:20:56;;;;;;;;;;;;;;;;;;;;;
2021/05/14 11:23:34;;;;;;;0.35;0.25;;;;;;;27.83;34.41;99897.53;6246726;23;20479;-76
2021/05/14 11:26:05;;;;;;;0.20;0.20;;;;;;;27.96;32.67;99898.78;6222144;23;20007;-77
2021/05/14 11:28:41;;;;;;;1.20;0.20;;;;;;;28.17;33.15;99900.88;6246314;23;20385;-75
2021/05/14 11:31:22;;;;;;;0.20;0.13;;;;;;;28.33;32.25;99892.06;6220437;23;20016;-75
2021/05/14 11:33:52;;;;;;;0.10;0.08;;;;;;;28.55;32.18;99890.06;6243765;23;20000;-78
2021/05/14 11:36:18;;;;;;;0.22;0.20;;;;;;;28.63;31.37;99904.13;6250218;23;20079;-76
2021/05/14 11:38:58;;;;;;;0.10;0.10;;;;;;;28.47;31.04;99901.69;6249770;23;20054;-76
2021/05/14 11:41:28;;;;;;;0.10;0.10;;;;;;;27.98;30.49;99899.22;6247672;23;20007;-74
2021/05/14 11:44:02;;;;;;;0.57;0.20;;;;;;;27.43;29.80;99905.03;6239892;23;20464;-73
2021/05/14 11:46:31;;;;;;;0.20;0.10;;;;;;;26.72;29.49;99908.97;6241893;23;20012;-75
2021/05/14 11:49:03;;;;;;;0.10;0.10;;;;;;;26.05;30.16;99903.13;6247790;23;20008;-75
2021/05/14 11:51:29;;;;;;;0.10;0.10;;;;;;;25.57;30.74;99900.97;6248303;23;20083;-72
2021/05/14 11:53:54;;;;;;;1.10;0.35;;;;;;;25.19;30.65;99897.25;6246289;23;20000;-72
2021/05/14 11:56:20;;;;;;;0.10;0.10;;;;;;;24.84;31.81;99891.94;6239188;23;20008;-74
2021/05/14 11:58:45;;;;;;;0.10;0.10;;;;;;;24.66;32.24;99892.47;6220726;23;20074;-74
2021/05/14 12:01:11;;;;;;;0.10;0.10;;;;;;;24.50;31.87;99897.34;6220137;23;20027;-73
2021/05/14 12:03:36;;;;;;;0.32;0.10;;;;;;;24.36;32.64;99890.34;6245807;23;20500;-75
2021/05/14 12:06:07;;;;;;;0.20;0.20;;;;;;;24.39;32.93;99892.38;6248129;23;20008;-73
2021/05/14 12:08:32;;;;;;;0.10;0.10;;;;;;;24.43;32.59;99886.88;6243981;23;20331;-72
2021/05/14 12:11:12;;;;;;;0.25;0.20;;;;;;;24.66;33.11;99880.47;6196245;23;20012;-74
2021/05/14 12:13:43;;;;;;;1.48;0.40;;;;;;;25.22;34.01;99874.09;6247318;23;20000;-72
2021/05/14 12:16:16;;;;;;;4.55;1.60;;;;;;;25.93;32.29;99884.59;6220739;23;20361;-73